createdAt,value
2022-10-05T00:00:17.455Z,83.02
2022-10-05T00:03:10.384Z,82.95
2022-10-05T00:05:36.911Z,82.99
2022-10-05T00:08:23.226Z,83.01
2022-10-05T00:10:50.415Z,82.95
2022-10-05T00:13:27.862Z,82.86
2022-10-05T00:16:18.492Z,82.91
2022-10-05T00:18:51.413Z,83.09
2022-10-05T00:21:23.934Z,83.15
2022-10-05T00:23:51.383Z,83.28
2022-10-05T00:26:24.023Z,83.35
2022-10-05T00:28:50.884Z,83.34
2022-10-05T00:31:23.507Z,83.30
2022-10-05T00:33:49.818Z,83.42
2022-10-05T00:36:16.959Z,83.42
2022-10-05T00:38:43.647Z,83.40
2022-10-05T00:41:10.281Z,83.63
2022-10-05T00:44:16.537Z,83.95
2022-10-05T00:47:27.616Z,84.14
2022-10-05T00:50:10.465Z,84.17
2022-10-05T00:53:14.701Z,84.22
2022-10-05T00:56:06.975Z,84.15
2022-10-05T00:58:58.050Z,84.05
2022-10-05T01:01:55.057Z,84.03
2022-10-05T01:04:31.394Z,83.98
2022-10-05T01:07:25.082Z,84.10
2022-10-05T01:10:01.347Z,84.36
2022-10-05T01:12:46.847Z,84.69
2022-10-05T01:15:37.612Z,84.96
2022-10-05T01:18:42.243Z,85.21
2022-10-05T01:21:19.200Z,85.34
2022-10-05T01:24:00.657Z,85.47
2022-10-05T01:27:01.106Z,85.53
2022-10-05T01:29:36.370Z,85.56
2022-10-05T01:32:39.636Z,85.59
2022-10-05T01:35:22.320Z,85.59
2022-10-05T01:38:00.751Z,85.59
2022-10-05T01:40:34.898Z,85.39
2022-10-05T01:43:24.467Z,85.20
2022-10-05T01:46:08.089Z,84.98
2022-10-05T01:49:04.238Z,84.74
2022-10-05T01:51:47.790Z,84.51
2022-10-05T01:54:39.747Z,84.28
2022-10-05T01:57:36.604Z,84.12
2022-10-05T02:00:10.924Z,84.05
2022-10-05T02:02:52.408Z,84.00
2022-10-05T02:05:29.453Z,84.00
2022-10-05T02:08:07.821Z,83.99
2022-10-05T02:10:41.980Z,83.96
2022-10-05T02:13:40.744Z,83.95
2022-10-05T02:16:27.120Z,83.95
2022-10-05T02:18:59.980Z,84.01
2022-10-05T02:21:27.205Z,84.07
2022-10-05T02:23:57.209Z,84.17
2022-10-05T02:26:24.470Z,84.25
2022-10-05T02:28:58.571Z,84.31
2022-10-05T02:31:48.534Z,84.32
2022-10-05T02:34:28.039Z,84.37
2022-10-05T02:37:17.800Z,84.46
2022-10-05T02:40:33.918Z,84.58
2022-10-05T02:43:26.545Z,84.56
2022-10-05T02:46:09.466Z,84.58
2022-10-05T02:48:44.245Z,84.60
2022-10-05T02:51:27.118Z,84.56
2022-10-05T02:54:38.697Z,84.51
2022-10-05T02:57:29.105Z,84.41
2022-10-05T03:00:06.973Z,84.33
2022-10-05T03:02:39.126Z,84.28
2022-10-05T03:05:37.355Z,84.24
2022-10-05T03:08:20.265Z,84.19
2022-10-05T03:11:10.939Z,84.04
2022-10-05T03:14:02.792Z,83.99
2022-10-05T03:16:56.575Z,83.94
2022-10-05T03:20:00.180Z,83.87
2022-10-05T03:23:01.538Z,83.81
2022-10-05T03:26:01.736Z,83.78
2022-10-05T03:29:03.848Z,83.75
2022-10-05T03:31:50.909Z,83.70
2022-10-05T03:34:28.262Z,83.64
2022-10-05T03:37:10.274Z,83.55
2022-10-05T03:40:15.067Z,83.48
2022-10-05T03:43:33.959Z,83.41
2022-10-05T03:46:09.811Z,83.37
2022-10-05T03:49:13.696Z,83.33
2022-10-05T03:51:48.040Z,83.31
2022-10-05T03:54:35.916Z,83.29
2022-10-05T03:57:20.585Z,83.27
2022-10-05T04:00:26.944Z,83.26
2022-10-05T04:03:09.670Z,83.14
2022-10-05T04:05:52.597Z,82.99
2022-10-05T04:08:48.796Z,82.85
2022-10-05T04:11:23.740Z,82.71
2022-10-05T04:14:13.930Z,82.61
2022-10-05T04:16:45.313Z,82.58
2022-10-05T04:19:27.499Z,82.64
2022-10-05T04:22:02.642Z,82.70
2022-10-05T04:24:39.399Z,82.75
2022-10-05T04:27:21.264Z,82.82
2022-10-05T04:30:15.581Z,82.86
2022-10-05T04:32:56.855Z,82.87
2022-10-05T04:35:35.209Z,82.91
2022-10-05T04:38:46.385Z,82.84
2022-10-05T04:41:55.524Z,82.71
2022-10-05T04:44:48.309Z,82.44
2022-10-05T04:48:13.330Z,82.26
2022-10-05T04:50:52.459Z,82.14
2022-10-05T04:53:36.120Z,82.10
2022-10-05T04:56:17.847Z,82.10
2022-10-05T04:59:24.423Z,82.12
2022-10-05T05:02:06.050Z,82.15
2022-10-05T05:04:54.400Z,82.23
2022-10-05T05:07:35.804Z,82.32
2022-10-05T05:10:55.623Z,82.44
2022-10-05T05:13:48.742Z,82.53
2022-10-05T05:16:37.029Z,82.59
2022-10-05T05:19:44.265Z,82.61
2022-10-05T05:22:26.071Z,82.73
2022-10-05T05:25:44.552Z,82.91
2022-10-05T05:28:34.384Z,83.05
2022-10-05T05:31:30.774Z,83.15
2022-10-05T05:34:28.814Z,83.23
2022-10-05T05:37:31.136Z,83.20
2022-10-05T05:40:14.572Z,83.17
2022-10-05T05:43:00.218Z,83.12
2022-10-05T05:45:42.051Z,83.09
2022-10-05T05:48:34.699Z,83.07
2022-10-05T05:51:17.244Z,83.05
2022-10-05T05:53:54.556Z,83.03
2022-10-05T05:56:39.063Z,83.00
2022-10-05T05:59:22.528Z,82.96
2022-10-05T06:01:55.657Z,82.87
2022-10-05T06:04:41.394Z,82.81
2022-10-05T06:07:16.097Z,82.76
2022-10-05T06:10:21.139Z,82.72
2022-10-05T06:12:50.220Z,82.67
2022-10-05T06:15:27.506Z,82.60
2022-10-05T06:17:58.212Z,82.63
2022-10-05T06:20:36.429Z,82.72
2022-10-05T06:23:11.745Z,82.67
2022-10-05T06:25:57.838Z,82.59
2022-10-05T06:28:24.974Z,82.46
2022-10-05T06:31:26.196Z,82.30
2022-10-05T06:34:49.883Z,82.10
2022-10-05T06:37:59.286Z,81.99
2022-10-05T06:40:45.204Z,81.71
2022-10-05T06:43:29.975Z,81.44
2022-10-05T06:46:35.662Z,81.22
2022-10-05T06:49:18.545Z,81.13
2022-10-05T06:51:55.443Z,80.97
2022-10-05T06:54:47.853Z,80.96
2022-10-05T06:57:36.145Z,80.73
2022-10-05T07:00:19.853Z,80.70
2022-10-05T07:02:55.649Z,80.52
2022-10-05T07:06:19.869Z,80.14
2022-10-05T07:09:35.842Z,80.12
2022-10-05T07:12:29.705Z,79.93
2022-10-05T07:15:23.626Z,79.65
2022-10-05T07:18:15.163Z,79.35
2022-10-05T07:21:38.915Z,79.15
2022-10-05T07:24:33.967Z,79.05
2022-10-05T07:27:07.500Z,78.99
2022-10-05T07:30:05.316Z,78.94
2022-10-05T07:32:52.197Z,78.62
2022-10-05T07:35:47.704Z,78.53
2022-10-05T07:38:32.127Z,78.24
2022-10-05T07:41:10.868Z,77.81
2022-10-05T07:44:01.693Z,77.50
2022-10-05T07:47:00.239Z,77.00
2022-10-05T07:49:46.394Z,76.62
2022-10-05T07:52:34.877Z,76.16
2022-10-05T07:55:19.252Z,75.89
2022-10-05T07:58:12.552Z,75.37
2022-10-05T08:01:00.051Z,75.14
2022-10-05T08:03:51.764Z,74.71
2022-10-05T08:06:57.793Z,74.41
2022-10-05T08:09:52.132Z,74.27
2022-10-05T08:12:50.413Z,74.09
2022-10-05T08:15:25.213Z,73.60
2022-10-05T08:18:21.533Z,73.31
2022-10-05T08:20:58.446Z,72.59
2022-10-05T08:23:51.118Z,72.78
2022-10-05T08:26:40.857Z,72.36
2022-10-05T08:29:22.929Z,72.17
2022-10-05T08:31:56.582Z,71.55
2022-10-05T08:34:39.248Z,71.57
2022-10-05T08:37:19.671Z,71.71
2022-10-05T08:40:39.064Z,71.24
2022-10-05T08:43:45.388Z,70.99
2022-10-05T08:46:48.388Z,70.24
2022-10-05T08:49:47.474Z,69.91
2022-10-05T08:53:16.289Z,69.32
2022-10-05T08:56:04.017Z,67.77
2022-10-05T08:58:51.693Z,66.81
2022-10-05T09:01:37.272Z,66.00
2022-10-05T09:04:32.791Z,63.71
2022-10-05T09:07:10.107Z,63.16
2022-10-05T09:09:52.101Z,63.42
2022-10-05T09:12:43.659Z,63.03
2022-10-05T09:15:46.883Z,61.55
2022-10-05T09:18:19.194Z,59.08
2022-10-05T09:20:56.495Z,59.08
2022-10-05T09:23:47.369Z,58.41
2022-10-05T09:26:46.880Z,56.99
2022-10-05T09:30:09.450Z,57.45
2022-10-05T09:33:34.251Z,56.76
2022-10-05T09:36:25.375Z,54.76
2022-10-05T09:39:21.412Z,54.33
2022-10-05T09:42:33.991Z,54.74
2022-10-05T09:45:39.922Z,54.56
2022-10-05T09:48:28.903Z,54.88
2022-10-05T09:51:22.840Z,55.07
2022-10-05T09:54:33.778Z,55.58
2022-10-05T09:57:38.771Z,55.85
2022-10-05T10:00:34.758Z,55.90
2022-10-05T10:03:14.397Z,55.30
2022-10-05T10:06:30.121Z,55.71
2022-10-05T10:09:26.312Z,54.31
2022-10-05T10:12:28.421Z,53.71
2022-10-05T10:15:26.335Z,53.06
2022-10-05T10:18:27.723Z,52.39
2022-10-05T10:21:28.858Z,51.65
2022-10-05T10:24:22.398Z,51.21
2022-10-05T10:27:19.822Z,51.38
2022-10-05T10:30:26.320Z,51.59
2022-10-05T10:33:12.689Z,51.54
2022-10-05T10:36:00.503Z,52.17
2022-10-05T10:39:10.831Z,51.73
2022-10-05T10:42:15.980Z,52.46
2022-10-05T10:45:30.388Z,52.27
2022-10-05T10:48:24.885Z,51.97
2022-10-05T10:51:36.157Z,52.20
2022-10-05T10:54:39.045Z,51.68
2022-10-05T10:57:14.855Z,51.71
2022-10-05T11:00:15.539Z,51.52
2022-10-05T11:03:18.513Z,51.77
2022-10-05T11:05:51.182Z,52.31
2022-10-05T11:08:40.357Z,52.17
2022-10-05T11:11:17.275Z,51.94
2022-10-05T11:14:25.052Z,51.47
2022-10-05T11:17:37.966Z,51.69
2022-10-05T11:21:00.127Z,51.93
2022-10-05T11:24:23.393Z,51.06
2022-10-05T11:27:33.458Z,50.78
2022-10-05T11:30:27.693Z,50.06
2022-10-05T11:33:47.658Z,50.48
2022-10-05T11:36:41.815Z,51.08
2022-10-05T11:39:39.577Z,51.08
2022-10-05T11:42:27.898Z,50.96
2022-10-05T11:45:25.216Z,51.15
2022-10-05T11:48:34.269Z,51.92
2022-10-05T11:51:14.235Z,52.22
2022-10-05T11:54:17.028Z,52.52
2022-10-05T11:57:00.539Z,53.29
2022-10-05T11:59:36.337Z,53.87
2022-10-05T12:02:43.620Z,54.34
2022-10-05T12:05:45.972Z,54.60
2022-10-05T12:08:32.382Z,54.68
2022-10-05T12:11:49.009Z,55.21
2022-10-05T12:14:28.119Z,55.71
2022-10-05T12:17:17.399Z,56.21
2022-10-05T12:19:47.900Z,56.53
2022-10-05T12:22:41.235Z,56.48
2022-10-05T12:25:35.139Z,56.37
2022-10-05T12:28:09.326Z,56.28
2022-10-05T12:31:30.199Z,56.10
2022-10-05T12:34:07.924Z,55.81
2022-10-05T12:37:04.827Z,55.34
2022-10-05T12:39:50.673Z,55.58
2022-10-05T12:42:49.915Z,55.91
2022-10-05T12:45:42.955Z,55.94
2022-10-05T12:48:21.909Z,55.94
2022-10-05T12:51:26.101Z,55.91
2022-10-05T12:54:23.314Z,56.12
2022-10-05T12:56:55.561Z,55.89
2022-10-05T13:00:23.416Z,55.91
2022-10-05T13:02:57.151Z,56.08
2022-10-05T13:05:47.051Z,56.36
2022-10-05T13:08:50.935Z,56.39
2022-10-05T13:11:35.899Z,56.64
2022-10-05T13:14:17.619Z,56.81
2022-10-05T13:17:10.746Z,56.77
2022-10-05T13:19:46.401Z,57.17
2022-10-05T13:22:49.453Z,57.37
2022-10-05T13:25:26.125Z,57.64
2022-10-05T13:28:01.728Z,57.56
2022-10-05T13:30:28.863Z,57.40
2022-10-05T13:33:03.861Z,57.47
2022-10-05T13:36:02.494Z,57.62
2022-10-05T13:38:58.364Z,57.75
2022-10-05T13:41:54.525Z,57.46
2022-10-05T13:44:58.354Z,57.22
2022-10-05T13:48:03.519Z,56.47
2022-10-05T13:50:42.331Z,56.48
2022-10-05T13:53:36.605Z,56.69
2022-10-05T13:56:27.913Z,56.68
2022-10-05T13:59:07.265Z,56.82
2022-10-05T14:01:49.803Z,56.87
2022-10-05T14:04:20.005Z,56.56
2022-10-05T14:06:48.069Z,56.82
2022-10-05T14:09:24.917Z,56.98
2022-10-05T14:12:13.292Z,57.00
2022-10-05T14:15:22.986Z,57.28
2022-10-05T14:17:52.099Z,57.21
2022-10-05T14:20:27.282Z,57.19
2022-10-05T14:23:14.736Z,57.29
2022-10-05T14:25:53.376Z,57.60
2022-10-05T14:28:32.625Z,57.63
2022-10-05T14:31:39.684Z,57.83
2022-10-05T14:34:36.068Z,58.02
2022-10-05T14:37:28.366Z,58.14
2022-10-05T14:40:22.647Z,58.11
2022-10-05T14:43:23.219Z,58.33
2022-10-05T14:46:05.657Z,58.37
2022-10-05T14:49:17.387Z,58.41
2022-10-05T14:51:52.718Z,58.57
2022-10-05T14:54:49.075Z,58.79
2022-10-05T14:57:39.724Z,59.00
2022-10-05T15:00:20.285Z,59.00
2022-10-05T15:03:03.958Z,59.19
2022-10-05T15:05:45.300Z,59.29
2022-10-05T15:08:18.064Z,59.47
2022-10-05T15:11:04.774Z,59.66
2022-10-05T15:13:41.057Z,59.64
2022-10-05T15:16:18.421Z,59.69
2022-10-05T15:19:03.885Z,59.64
2022-10-05T15:22:05.143Z,59.61
2022-10-05T15:24:43.322Z,59.56
2022-10-05T15:27:30.771Z,59.86
2022-10-05T15:30:24.540Z,59.85
2022-10-05T15:33:32.503Z,59.86
2022-10-05T15:36:07.623Z,59.90
2022-10-05T15:39:13.031Z,60.09
2022-10-05T15:42:01.870Z,60.08
2022-10-05T15:44:51.629Z,60.20
2022-10-05T15:47:41.987Z,60.31
2022-10-05T15:50:22.571Z,60.49
2022-10-05T15:53:02.291Z,60.64
2022-10-05T15:55:34.738Z,60.88
2022-10-05T15:58:10.897Z,61.14
2022-10-05T16:01:12.427Z,61.33
2022-10-05T16:04:39.005Z,61.50
2022-10-05T16:07:34.139Z,61.77
2022-10-05T16:10:03.804Z,62.09
2022-10-05T16:12:45.163Z,62.47
2022-10-05T16:15:25.969Z,62.72
2022-10-05T16:18:31.933Z,63.05
2022-10-05T16:21:29.064Z,63.30
2022-10-05T16:24:08.919Z,63.63
2022-10-05T16:26:55.928Z,63.94
2022-10-05T16:29:39.177Z,64.29
2022-10-05T16:32:09.810Z,64.58
2022-10-05T16:34:55.670Z,64.95
2022-10-05T16:37:44.766Z,65.26
2022-10-05T16:40:27.942Z,65.56
2022-10-05T16:42:57.859Z,65.90
2022-10-05T16:45:52.531Z,66.28
2022-10-05T16:48:26.801Z,66.53
2022-10-05T16:51:31.615Z,66.76
2022-10-05T16:54:38.226Z,66.95
2022-10-05T16:57:19.112Z,67.34
2022-10-05T17:00:23.133Z,67.76
2022-10-05T17:03:16.222Z,68.00
2022-10-05T17:05:55.195Z,68.38
2022-10-05T17:08:58.848Z,68.72
2022-10-05T17:12:07.731Z,69.05
2022-10-05T17:15:19.176Z,69.37
2022-10-05T17:18:16.756Z,69.74
2022-10-05T17:21:20.879Z,70.02
2022-10-05T17:23:58.846Z,70.30
2022-10-05T17:26:43.464Z,70.61
2022-10-05T17:29:27.286Z,70.87
2022-10-05T17:32:06.099Z,71.24
2022-10-05T17:34:36.575Z,71.56
2022-10-05T17:37:30.037Z,71.91
2022-10-05T17:39:58.454Z,72.16
2022-10-05T17:42:32.126Z,72.49
2022-10-05T17:45:11.769Z,72.87
2022-10-05T17:48:09.801Z,73.19
2022-10-05T17:51:00.763Z,73.48
2022-10-05T17:53:52.379Z,73.79
2022-10-05T17:56:24.220Z,74.08
2022-10-05T17:59:01.606Z,74.44
2022-10-05T18:01:39.586Z,74.65
2022-10-05T18:04:12.725Z,74.90
2022-10-05T18:07:02.588Z,75.08
2022-10-05T18:09:33.541Z,75.09
2022-10-05T18:12:18.861Z,75.28
2022-10-05T18:15:23.758Z,75.36
2022-10-05T18:18:32.420Z,75.43
2022-10-05T18:22:02.970Z,75.48
2022-10-05T18:24:52.502Z,75.66
2022-10-05T18:27:49.846Z,75.92
2022-10-05T18:30:23.038Z,76.03
2022-10-05T18:33:31.602Z,76.14
2022-10-05T18:36:23.146Z,76.04
2022-10-05T18:39:07.927Z,76.00
2022-10-05T18:42:06.615Z,75.99
2022-10-05T18:44:46.124Z,75.93
2022-10-05T18:47:35.699Z,75.94
2022-10-05T18:50:25.757Z,75.80
2022-10-05T18:53:13.820Z,75.69
2022-10-05T18:55:45.421Z,75.61
2022-10-05T18:58:51.062Z,75.53
2022-10-05T19:01:45.613Z,75.41
2022-10-05T19:04:40.250Z,75.31
2022-10-05T19:07:38.646Z,75.25
2022-10-05T19:10:25.365Z,75.20
2022-10-05T19:13:10.473Z,75.18
2022-10-05T19:16:07.812Z,75.19
2022-10-05T19:19:05.272Z,75.21
2022-10-05T19:21:41.144Z,75.15
2022-10-05T19:24:49.140Z,75.12
2022-10-05T19:27:46.334Z,75.02
2022-10-05T19:30:22.600Z,75.00
2022-10-05T19:33:06.461Z,75.01
2022-10-05T19:36:04.558Z,75.08
2022-10-05T19:39:06.676Z,75.07
2022-10-05T19:41:36.578Z,75.11
2022-10-05T19:44:12.883Z,75.19
2022-10-05T19:46:59.538Z,75.14
2022-10-05T19:49:48.115Z,75.13
2022-10-05T19:52:24.850Z,75.40
2022-10-05T19:55:23.690Z,75.62
2022-10-05T19:57:53.631Z,75.76
2022-10-05T20:00:32.545Z,75.93
2022-10-05T20:03:15.911Z,76.04
2022-10-05T20:05:42.580Z,76.20
2022-10-05T20:08:18.951Z,76.31
2022-10-05T20:11:06.413Z,76.38
2022-10-05T20:13:34.793Z,76.46
2022-10-05T20:16:35.245Z,76.54
2022-10-05T20:19:35.121Z,76.63
2022-10-05T20:22:29.450Z,76.83
2022-10-05T20:25:01.671Z,76.95
2022-10-05T20:27:37.183Z,77.05
2022-10-05T20:30:05.568Z,77.19
2022-10-05T20:32:32.279Z,77.24
2022-10-05T20:35:00.799Z,77.34
2022-10-05T20:37:27.595Z,77.47
2022-10-05T20:39:54.608Z,77.60
2022-10-05T20:42:23.540Z,77.77
2022-10-05T20:44:56.528Z,77.95
2022-10-05T20:47:25.136Z,78.08
2022-10-05T20:49:54.129Z,78.19
2022-10-05T20:52:22.490Z,78.29
2022-10-05T20:54:53.072Z,78.37
2022-10-05T20:57:24.101Z,78.42
2022-10-05T20:59:51.209Z,78.46
2022-10-05T21:02:19.113Z,78.53
2022-10-05T21:04:47.382Z,78.56
2022-10-05T21:07:20.522Z,78.62
2022-10-05T21:09:47.167Z,78.69
2022-10-05T21:12:15.963Z,78.80
2022-10-05T21:14:42.680Z,78.93
2022-10-05T21:17:11.267Z,78.93
2022-10-05T21:19:40.858Z,78.94
2022-10-05T21:22:09.572Z,78.93
2022-10-05T21:24:38.155Z,79.00
2022-10-05T21:27:05.162Z,79.11
2022-10-05T21:29:32.707Z,79.17
2022-10-05T21:31:59.811Z,79.26
2022-10-05T21:34:28.039Z,79.29
2022-10-05T21:36:54.819Z,79.20
2022-10-05T21:39:21.352Z,79.12
2022-10-05T21:41:49.747Z,79.06
2022-10-05T21:44:18.058Z,79.00
2022-10-05T21:46:44.859Z,78.93
2022-10-05T21:49:19.510Z,78.83
2022-10-05T21:51:46.715Z,78.82
2022-10-05T21:54:17.159Z,78.79
2022-10-05T21:56:59.443Z,78.75
2022-10-05T21:59:30.987Z,78.71
2022-10-05T22:01:58.149Z,78.66
2022-10-05T22:04:25.231Z,78.59
2022-10-05T22:06:52.544Z,78.49
2022-10-05T22:09:19.728Z,78.47
2022-10-05T22:11:50.409Z,78.48
2022-10-05T22:14:17.224Z,78.48
2022-10-05T22:16:44.656Z,78.49
2022-10-05T22:19:16.311Z,78.46
2022-10-05T22:21:43.634Z,78.45
2022-10-05T22:24:12.933Z,78.47
2022-10-05T22:26:42.222Z,78.43
2022-10-05T22:29:09.357Z,78.39
2022-10-05T22:31:36.781Z,78.33
2022-10-05T22:34:03.892Z,78.31
2022-10-05T22:36:30.495Z,78.29
2022-10-05T22:38:56.979Z,78.29
2022-10-05T22:41:23.777Z,78.31
2022-10-05T22:43:53.588Z,78.32
2022-10-05T22:46:24.382Z,78.33
2022-10-05T22:48:51.415Z,78.33
2022-10-05T22:51:21.099Z,78.34
2022-10-05T22:53:49.683Z,78.36
2022-10-05T22:56:19.026Z,78.38
2022-10-05T22:58:46.793Z,78.44
2022-10-05T23:01:16.702Z,78.46
2022-10-05T23:03:44.054Z,78.50
2022-10-05T23:06:19.854Z,78.51
2022-10-05T23:08:47.021Z,78.47
2022-10-05T23:11:23.154Z,78.48
2022-10-05T23:13:51.747Z,78.51
2022-10-05T23:16:22.400Z,78.54
2022-10-05T23:18:53.171Z,78.61
2022-10-05T23:21:23.310Z,78.73
2022-10-05T23:23:54.776Z,78.82
2022-10-05T23:26:27.464Z,78.93
2022-10-05T23:28:54.094Z,79.02
2022-10-05T23:31:27.049Z,79.08
2022-10-05T23:33:53.856Z,79.19
2022-10-05T23:36:27.334Z,79.27
2022-10-05T23:38:54.380Z,79.30
2022-10-05T23:41:21.785Z,79.39
2022-10-05T23:43:48.469Z,79.47
2022-10-05T23:46:15.473Z,79.56
2022-10-05T23:48:46.350Z,79.61
2022-10-05T23:51:13.552Z,79.60
2022-10-05T23:53:41.958Z,79.48
2022-10-05T23:56:12.326Z,79.33
2022-10-05T23:58:42.472Z,79.43
